Time;durP1;ratioP1;P1;durP2;ratioP2;P2;SDS_P1;SDS_P2;PMS_P1;PMS_P2;Temp;Humidity;BMP_temperature;BMP_pressure;BME280_temperature;BME280_humidity;BME280_pressure;Samples;Min_cycle;Max_cycle;Signal;HPM_P1;HPM_P2
2022/01/12 00:01:22;;;;;;;1.67;1.50;;;;;;;-0.95;44.63;100929.38;3349542;29;20048;-73
2022/01/12 00:03:03;;;;;;;4.65;1.67;;;;;;;-0.97;44.19;100928.63;3349110;29;20045;-73
2022/01/12 00:04:43;;;;;;;2.55;1.55;;;;;;;-1.00;44.03;100932.25;3350139;29;20041;-72
2022/01/12 00:06:24;;;;;;;1.98;1.20;;;;;;;-1.04;43.99;100930.75;3350389;29;20045;-73
2022/01/12 00:08:05;;;;;;;2.22;1.40;;;;;;;-1.07;44.03;100928.31;3349568;29;20049;-74
2022/01/12 00:09:46;;;;;;;2.00;1.00;;;;;;;-1.08;43.84;100931.88;3336925;29;20121;-73
2022/01/12 00:11:27;;;;;;;2.67;1.73;;;;;;;-1.09;43.84;100935.41;3346504;29;20517;-73
2022/01/12 00:13:07;;;;;;;1.33;1.20;;;;;;;-1.13;43.63;100933.91;3349429;29;20117;-73
2022/01/12 00:14:48;;;;;;;3.22;1.50;;;;;;;-1.14;43.74;100926.97;3350250;29;20041;-72
2022/01/12 00:16:29;;;;;;;2.88;1.33;;;;;;;-1.14;43.81;100932.22;3336850;29;20105;-73
2022/01/12 00:18:09;;;;;;;2.38;1.70;;;;;;;-1.16;43.46;100926.22;3347664;29;20049;-73
2022/01/12 00:19:50;;;;;;;1.90;1.52;;;;;;;-1.18;43.22;100942.00;3350062;29;20042;-75
2022/01/12 00:21:31;;;;;;;1.65;1.33;;;;;;;-1.22;43.15;100924.81;3349445;29;20497;-74
2022/01/12 00:23:12;;;;;;;1.85;1.48;;;;;;;-1.20;42.98;100929.97;3350253;29;20097;-72
2022/01/12 00:34:14;;;;;;;2.85;1.60;;;;;;;-1.18;43.56;100930.72;3350349;29;20132;-72
2022/01/12 00:35:57;;;;;;;3.25;1.45;;;;;;;-1.19;43.82;100934.25;3336278;29;20094;-70
2022/01/12 00:37:39;;;;;;;1.42;1.33;;;;;;;-1.22;43.94;100932.66;3336350;29;20053;-71
2022/01/12 00:39:19;;;;;;;3.42;1.48;;;;;;;-1.22;43.77;100930.03;3347259;29;20417;-72
2022/01/12 00:41:00;;;;;;;1.55;1.45;;;;;;;-1.25;43.67;100924.16;3350053;29;20128;-71
2022/01/12 00:42:41;;;;;;;2.20;1.48;;;;;;;-1.26;43.46;100928.53;3344806;29;20145;-73
2022/01/12 00:44:32;;;;;;;2.13;1.52;;;;;;;-1.26;43.47;100935.56;3346273;29;20049;-70
2022/01/12 00:46:14;;;;;;;2.95;1.48;;;;;;;-1.28;43.60;100929.56;3347987;29;20061;-71
2022/01/12 00:47:54;;;;;;;1.52;1.00;;;;;;;-1.28;43.62;100932.19;3360268;29;20049;-71
2022/01/12 00:49:35;;;;;;;1.70;1.30;;;;;;;-1.33;43.62;100928.03;3359527;29;20129;-71
2022/01/12 00:51:16;;;;;;;3.25;1.63;;;;;;;-1.36;43.75;100928.22;3348842;29;20045;-72
2022/01/12 00:52:57;;;;;;;3.78;1.23;;;;;;;-1.30;43.94;100939.25;3335529;29;20069;-70
2022/01/12 00:54:38;;;;;;;1.70;1.60;;;;;;;-1.32;43.63;100927.13;3333572;29;20041;-71
2022/01/12 00:56:19;;;;;;;1.75;1.10;;;;;;;-1.35;43.59;100923.81;3347082;29;20046;-72
2022/01/12 00:58:00;;;;;;;2.25;1.30;;;;;;;-1.34;43.70;100928.16;3336101;29;20184;-71
2022/01/12 00:59:41;;;;;;;3.40;1.48;;;;;;;-1.36;43.39;100928.22;3335565;29;20111;-71
2022/01/12 01:01:22;;;;;;;1.20;1.10;;;;;;;-1.41;43.22;100925.03;3346745;29;20097;-71
2022/01/12 01:03:03;;;;;;;2.03;1.20;;;;;;;-1.42;42.99;100923.34;3348612;29;20578;-72
2022/01/12 01:04:44;;;;;;;2.30;1.10;;;;;;;-1.43;43.35;100926.88;3337345;29;20528;-72
2022/01/12 01:06:25;;;;;;;1.13;1.02;;;;;;;-1.41;43.30;100922.41;3349046;29;20049;-71
2022/01/12 01:08:06;;;;;;;1.83;1.20;;;;;;;-1.39;43.47;100924.94;3336248;29;20049;-70
2022/01/12 01:09:56;;;;;;;1.00;1.00;;;;;;;-1.39;43.52;100920.56;3334097;29;20079;-72
2022/01/12 01:11:38;;;;;;;1.42;1.33;;;;;;;-1.37;43.73;100920.44;3325418;29;20042;-71
2022/01/12 01:13:26;;;;;;;2.47;0.90;;;;;;;-1.37;43.78;100920.44;3326249;29;21176;-71
2022/01/12 01:15:10;;;;;;;1.42;1.17;;;;;;;-1.37;43.50;100916.09;3348328;29;20045;-69
2022/01/12 01:25:28;;;;;;;1.42;1.10;;;;;;;-1.38;43.87;100909.16;3337126;29;20053;-69
2022/01/12 01:27:11;;;;;;;1.60;1.20;;;;;;;-1.42;43.67;100909.41;3346489;29;20049;-70
2022/01/12 01:28:52;;;;;;;1.60;1.20;;;;;;;-1.43;43.43;100921.66;3349562;29;20082;-71
2022/01/12 01:30:37;;;;;;;1.58;1.10;;;;;;;-1.44;43.59;100919.13;3335375;29;20106;-69
2022/01/12 01:32:19;;;;;;;2.80;2.08;;;;;;;-1.47;43.21;100920.16;3346412;29;20513;-72
2022/01/12 01:34:13;;;;;;;1.30;1.08;;;;;;;-1.48;43.29;100921.06;3335326;29;20118;-71
2022/01/12 01:35:57;;;;;;;2.13;1.50;;;;;;;-1.47;43.60;100922.78;3348482;29;20056;-72
2022/01/12 01:37:41;;;;;;;2.58;1.25;;;;;;;-1.47;43.24;100928.00;3335945;29;20083;-72
2022/01/12 01:39:25;;;;;;;1.45;1.08;;;;;;;-1.48;43.62;100921.06;3320644;29;20572;-71
2022/01/12 01:41:05;;;;;;;1.30;1.20;;;;;;;-1.48;43.60;100922.84;3344172;29;20056;-69
2022/01/12 01:54:26;;;;;;;2.03;1.35;;;;;;;-1.49;43.20;100915.94;3342504;29;20049;-70
2022/01/12 01:56:08;;;;;;;1.70;1.60;;;;;;;-1.51;43.23;100913.41;3335575;29;20046;-70
2022/01/12 01:57:49;;;;;;;2.28;1.55;;;;;;;-1.53;43.02;100920.47;3333086;29;20594;-69
2022/01/12 01:59:29;;;;;;;2.45;1.88;;;;;;;-1.53;43.15;100915.25;3346288;29;20049;-70
2022/01/12 02:01:10;;;;;;;1.20;1.10;;;;;;;-1.54;43.10;100918.81;3335171;29;20050;-70
2022/01/12 02:02:57;;;;;;;1.48;1.27;;;;;;;-1.53;43.18;100920.47;3346247;29;20056;-70
2022/01/12 02:04:48;;;;;;;2.55;1.10;;;;;;;-1.53;43.30;100910.03;3335181;29;20050;-70
2022/01/12 02:06:29;;;;;;;1.30;1.15;;;;;;;-1.53;43.01;100904.78;3334238;29;20077;-69
2022/01/12 02:08:11;;;;;;;2.17;1.25;;;;;;;-1.53;43.56;100904.78;3345699;29;20051;-69
2022/01/12 02:10:03;;;;;;;1.60;1.43;;;;;;;-1.50;43.65;100906.41;3335164;29;20061;-70
2022/01/12 02:12:01;;;;;;;1.73;1.60;;;;;;;-1.51;43.39;100902.94;3335490;29;20046;-70
2022/01/12 02:13:45;;;;;;;1.63;1.20;;;;;;;-1.53;43.74;100904.78;3333478;29;20129;-71
2022/01/12 02:15:26;;;;;;;1.45;0.90;;;;;;;-1.58;43.17;100891.16;3345961;29;20045;-71
2022/01/12 02:17:18;;;;;;;1.42;1.30;;;;;;;-1.55;43.21;100894.44;3322986;29;20046;-72
2022/01/12 02:37:15;;;;;;;2.67;1.58;;;;;;;-1.54;43.97;100875.22;3360188;29;20114;-70
2022/01/12 02:40:59;;;;;;;4.38;1.70;;;;;;;-1.54;43.32;100882.22;3363327;29;20045;-72
2022/01/12 02:42:44;;;;;;;1.45;1.10;;;;;;;-1.59;43.11;100873.78;3364355;29;20394;-71
2022/01/12 02:50:55;;;;;;;3.03;1.48;;;;;;;-1.63;43.12;100880.09;3336434;29;20133;-70
2022/01/12 02:54:35;;;;;;;2.25;1.35;;;;;;;-1.69;42.72;100870.00;3336672;29;20045;-71
2022/01/12 02:56:30;;;;;;;2.53;1.75;;;;;;;-1.68;42.89;100876.91;3353521;29;20060;-71
2022/01/12 02:58:12;;;;;;;4.63;1.60;;;;;;;-1.73;42.75;100871.09;3363993;29;20041;-68
2022/01/12 03:00:16;;;;;;;5.45;1.95;;;;;;;-1.72;42.73;100875.41;3349806;29;20109;-69
2022/01/12 03:02:20;;;;;;;2.85;1.70;;;;;;;-1.72;43.07;100868.41;3349538;29;20174;-68
2022/01/12 03:04:06;;;;;;;2.22;1.50;;;;;;;-1.71;42.54;100870.09;3350958;29;20417;-69
2022/01/12 03:05:56;;;;;;;2.42;1.60;;;;;;;-1.73;42.59;100871.09;3339948;29;20432;-71
2022/01/12 03:07:39;;;;;;;4.82;2.15;;;;;;;-1.74;43.03;100872.03;3349020;29;20136;-71
2022/01/12 03:09:20;;;;;;;3.88;1.58;;;;;;;-1.72;43.06;100867.56;3361203;29;20048;-70
2022/01/12 03:11:01;;;;;;;1.73;1.63;;;;;;;-1.72;43.24;100867.56;3364321;29;20473;-71
2022/01/12 03:12:43;;;;;;;3.67;2.25;;;;;;;-1.72;43.38;100868.41;3350370;29;20124;-71
2022/01/12 03:14:27;;;;;;;2.83;1.80;;;;;;;-1.72;42.97;100862.34;3335371;29;20111;-70
2022/01/12 03:17:53;;;;;;;1.67;1.55;;;;;;;-1.73;43.23;100863.25;3350262;29;20532;-71
2022/01/12 03:19:34;;;;;;;2.50;1.80;;;;;;;-1.70;43.20;100860.47;3356524;29;20045;-70
2022/01/12 03:21:17;;;;;;;3.13;2.05;;;;;;;-1.70;43.56;100870.91;3348300;29;20120;-71
2022/01/12 03:22:58;;;;;;;1.77;1.55;;;;;;;-1.71;43.75;100858.78;3348723;29;20124;-70
2022/01/12 03:24:39;;;;;;;2.83;2.00;;;;;;;-1.72;43.57;100864.97;3348017;29;20041;-71
2022/01/12 03:26:20;;;;;;;1.95;1.50;;;;;;;-1.73;43.13;100858.03;3360474;29;20041;-70
2022/01/12 03:28:03;;;;;;;2.83;2.00;;;;;;;-1.74;43.12;100865.03;3349873;29;20051;-71
2022/01/12 03:29:49;;;;;;;1.45;1.33;;;;;;;-1.73;43.19;100866.72;3347616;29;20053;-71
2022/01/12 03:31:33;;;;;;;2.67;2.10;;;;;;;-1.74;43.48;100856.38;3361146;29;20041;-70
2022/01/12 03:33:33;;;;;;;2.50;2.03;;;;;;;-1.72;43.45;100854.50;3362520;29;20143;-70
2022/01/12 03:35:36;;;;;;;3.55;2.22;;;;;;;-1.71;43.42;100843.94;3363044;29;20044;-70
2022/01/12 03:39:12;;;;;;;3.03;2.25;;;;;;;-1.73;43.10;100845.81;3336897;29;20074;-70
2022/01/12 03:40:54;;;;;;;3.67;1.92;;;;;;;-1.73;43.14;100865.88;3336273;29;20097;-72
2022/01/12 03:42:35;;;;;;;1.77;1.60;;;;;;;-1.73;43.10;100855.41;3360533;29;20052;-72
2022/01/12 03:44:17;;;;;;;2.55;1.70;;;;;;;-1.74;42.82;100856.38;3349626;29;20064;-71
2022/01/12 03:45:57;;;;;;;3.03;2.05;;;;;;;-1.76;43.16;100854.69;3350118;29;20182;-71
2022/01/12 03:47:38;;;;;;;2.80;1.73;;;;;;;-1.77;42.71;100857.38;3359965;29;21055;-69
2022/01/12 03:49:21;;;;;;;2.67;2.38;;;;;;;-1.80;42.82;100852.34;3349662;29;20180;-70
2022/01/12 03:51:01;;;;;;;2.60;2.10;;;;;;;-1.80;42.67;100855.78;3347358;29;20045;-72
2022/01/12 03:52:43;;;;;;;4.45;2.35;;;;;;;-1.80;42.52;100855.78;3349383;29;20058;-70
2022/01/12 03:54:23;;;;;;;3.67;2.45;;;;;;;-1.79;42.78;100851.38;3359226;29;20068;-71
2022/01/12 03:56:07;;;;;;;2.85;1.75;;;;;;;-1.80;42.63;100857.56;3348840;29;20049;-70
2022/01/12 03:57:48;;;;;;;5.40;2.25;;;;;;;-1.82;42.50;100849.78;3346945;29;20567;-71
2022/01/12 03:59:29;;;;;;;3.38;1.92;;;;;;;-1.81;42.74;100848.88;3360426;29;20049;-71
2022/01/12 04:01:10;;;;;;;3.00;1.75;;;;;;;-1.82;42.66;100849.78;3348866;29;20116;-72
2022/01/12 04:02:50;;;;;;;9.80;2.47;;;;;;;-1.85;42.54;100855.19;3346671;29;20037;-71
2022/01/12 04:04:36;;;;;;;4.60;2.10;;;;;;;-1.83;42.34;100866.41;3347414;29;20049;-72
2022/01/12 04:08:20;;;;;;;2.28;2.03;;;;;;;-1.82;42.65;100860.25;3349382;29;20052;-72
2022/01/12 04:10:03;;;;;;;1.90;1.65;;;;;;;-1.80;42.74;100863.63;3347260;29;20064;-72
2022/01/12 04:11:45;;;;;;;3.80;1.85;;;;;;;-1.79;43.10;100861.84;3346748;29;20623;-72
2022/01/12 04:13:27;;;;;;;2.73;1.70;;;;;;;-1.79;42.78;100861.84;3359697;29;20075;-71
2022/01/12 04:15:08;;;;;;;3.88;2.00;;;;;;;-1.80;43.21;100863.63;3349372;29;20797;-70
2022/01/12 04:16:49;;;;;;;2.95;1.63;;;;;;;-1.77;42.90;100866.06;3345686;29;20061;-74
2022/01/12 04:18:30;;;;;;;3.43;2.20;;;;;;;-1.82;43.10;100862.03;3360227;29;20045;-73
2022/01/12 04:20:11;;;;;;;3.38;2.35;;;;;;;-1.77;42.83;100870.44;3349037;29;20391;-73
2022/01/12 04:21:52;;;;;;;2.97;2.00;;;;;;;-1.78;42.88;100869.59;3360252;29;20049;-71
2022/01/12 04:23:33;;;;;;;4.57;1.90;;;;;;;-1.80;43.03;100866.22;3362603;29;20040;-70
2022/01/12 04:25:14;;;;;;;3.10;1.65;;;;;;;-1.82;42.79;100875.91;3348783;29;20509;-72
2022/01/12 04:26:55;;;;;;;4.47;2.47;;;;;;;-1.88;42.73;100862.38;3358291;29;20049;-71
2022/01/12 04:28:38;;;;;;;3.47;1.98;;;;;;;-1.88;42.36;100872.81;3362705;29;20110;-72
2022/01/12 04:30:18;;;;;;;3.28;2.25;;;;;;;-1.91;42.42;100867.75;3361717;29;20049;-73
2022/01/12 04:31:59;;;;;;;5.05;2.25;;;;;;;-1.95;42.48;100871.47;3348438;29;20417;-72
2022/01/12 04:33:41;;;;;;;3.88;1.90;;;;;;;-1.97;42.41;100872.38;3346411;29;20045;-72
2022/01/12 04:35:25;;;;;;;2.83;1.80;;;;;;;-1.96;42.13;100875.88;3359611;29;20048;-73
2022/01/12 04:37:06;;;;;;;1.98;1.83;;;;;;;-2.00;42.38;100869.09;3348140;29;20107;-72
2022/01/12 04:38:49;;;;;;;2.97;2.13;;;;;;;-2.03;42.39;100862.28;3346699;29;20049;-74
2022/01/12 04:40:31;;;;;;;4.18;2.35;;;;;;;-2.09;42.14;100856.53;3359739;29;20433;-73
2022/01/12 04:42:11;;;;;;;2.25;2.05;;;;;;;-1.98;42.52;100867.25;3362186;29;20070;-71
2022/01/12 04:43:53;;;;;;;2.38;1.73;;;;;;;-2.03;42.48;100856.22;3360958;29;20128;-71
2022/01/12 04:51:21;;;;;;;5.28;2.75;;;;;;;-1.96;42.60;100860.19;3358992;29;20107;-74
2022/01/12 04:53:02;;;;;;;2.90;2.20;;;;;;;-1.97;42.63;100864.53;3348961;29;20049;-75
2022/01/12 04:54:43;;;;;;;2.88;1.80;;;;;;;-2.02;42.93;100855.28;3336521;29;20796;-72
2022/01/12 04:56:28;;;;;;;4.97;2.42;;;;;;;-2.00;42.52;100862.09;3333982;29;20136;-74
2022/01/12 04:58:09;;;;;;;2.38;1.83;;;;;;;-2.08;42.67;100851.25;3343500;29;20049;-75
2022/01/12 05:00:25;;;;;;;4.40;2.33;;;;;;;-2.02;42.72;100870.97;3359012;29;20141;-74
2022/01/12 05:06:18;;;;;;;3.72;1.52;;;;;;;-2.00;42.96;100879.56;3363101;29;20421;-72
2022/01/12 05:08:19;;;;;;;3.08;2.00;;;;;;;-1.97;43.43;100875.00;3348408;29;20079;-75
2022/01/12 05:13:48;;;;;;;4.38;2.28;;;;;;;-2.05;43.07;100865.91;3361109;29;20045;-71
2022/01/12 05:15:33;;;;;;;2.45;2.13;;;;;;;-2.08;43.29;100866.91;3348674;29;20147;-71
2022/01/12 05:17:14;;;;;;;4.93;2.83;;;;;;;-2.06;43.26;100869.47;3358917;29;20485;-72
2022/01/12 05:18:56;;;;;;;4.93;2.42;;;;;;;-2.08;43.08;100869.53;3334926;29;20102;-72
2022/01/12 05:20:38;;;;;;;4.40;2.15;;;;;;;-2.13;42.86;100860.28;3343927;29;20139;-72
2022/01/12 05:22:19;;;;;;;2.55;1.75;;;;;;;-2.12;42.83;100864.56;3346121;29;20053;-74
2022/01/12 05:24:06;;;;;;;4.22;2.28;;;;;;;-2.12;43.01;100864.56;3345594;29;20041;-73
2022/01/12 05:25:47;;;;;;;3.08;2.10;;;;;;;-2.15;43.26;100864.72;3345129;29;20069;-74
2022/01/12 05:27:27;;;;;;;3.30;2.55;;;;;;;-2.15;43.46;100872.56;3358983;29;20140;-70
2022/01/12 05:29:09;;;;;;;3.88;2.58;;;;;;;-2.18;43.08;100864.91;3344048;29;20045;-71
2022/01/12 05:30:51;;;;;;;3.90;1.83;;;;;;;-2.18;43.08;100867.50;3350538;29;20888;-69
2022/01/12 05:32:32;;;;;;;3.45;2.47;;;;;;;-2.18;42.80;100864.91;3362189;29;20049;-69
2022/01/12 05:34:15;;;;;;;2.50;2.30;;;;;;;-2.20;42.79;100864.97;3347527;29;20191;-68
2022/01/12 05:35:58;;;;;;;4.38;2.80;;;;;;;-2.16;43.28;100868.28;3345237;29;20061;-74
2022/01/12 05:37:40;;;;;;;4.47;2.40;;;;;;;-2.16;43.51;100863.91;3345364;29;20038;-72
2022/01/12 05:39:21;;;;;;;;;;;;;;;-2.01;43.83;100873.50;3345823;29;20042;-71
2022/01/12 05:41:04;;;;;;;5.90;2.63;;;;;;;-2.07;43.55;100870.38;3345641;29;19928;-73
2022/01/12 05:42:45;;;;;;;4.95;1.92;;;;;;;-2.11;44.02;100863.66;3350752;29;20131;-73
2022/01/12 05:44:26;;;;;;;3.80;2.15;;;;;;;-2.06;43.70;100874.69;3348696;29;20044;-74
2022/01/12 05:46:10;;;;;;;5.13;2.88;;;;;;;-2.09;44.04;100867.84;3359546;29;20127;-76
2022/01/12 05:49:35;;;;;;;3.95;2.97;;;;;;;-2.11;43.83;100861.03;3346329;29;20049;-75
2022/01/12 05:51:18;;;;;;;3.90;2.40;;;;;;;-2.13;43.92;100862.88;3345647;29;20061;-73
2022/01/12 05:52:59;;;;;;;5.90;2.83;;;;;;;-2.12;43.67;100869.78;3359937;29;20049;-73
2022/01/12 05:54:39;;;;;;;5.10;2.78;;;;;;;-2.11;43.83;100868.88;3349061;29;20088;-75
2022/01/12 05:56:21;;;;;;;4.13;2.10;;;;;;;-2.12;44.04;100865.38;3346369;29;20048;-74
2022/01/12 05:58:02;;;;;;;3.88;2.58;;;;;;;-2.11;43.87;100863.66;3347009;29;20528;-74
2022/01/12 05:59:44;;;;;;;4.15;2.20;;;;;;;-2.26;43.88;100839.22;3360613;29;20102;-74
2022/01/12 06:01:25;;;;;;;5.93;2.45;;;;;;;-2.18;43.50;100860.50;3365597;29;20133;-74
2022/01/12 06:03:07;;;;;;;4.93;2.38;;;;;;;-2.14;43.41;100864.66;3363466;29;20084;-73
2022/01/12 06:04:49;;;;;;;3.83;2.50;;;;;;;-2.17;43.39;100861.34;3351519;29;20060;-72
2022/01/12 06:06:29;;;;;;;4.32;2.55;;;;;;;-2.10;43.26;100865.31;3338758;29;20136;-73
2022/01/12 06:08:10;;;;;;;3.85;2.00;;;;;;;-2.07;44.19;100870.38;3359273;29;20144;-75
2022/01/12 06:09:51;;;;;;;4.57;2.45;;;;;;;-2.06;44.33;100870.28;3338300;29;20046;-75
2022/01/12 06:11:31;;;;;;;4.40;2.40;;;;;;;-2.05;44.07;100869.34;3359116;29;20424;-75
2022/01/12 06:13:14;;;;;;;4.55;2.67;;;;;;;-2.04;44.19;100867.59;3338208;29;20051;-78
2022/01/12 06:14:55;;;;;;;3.65;3.15;;;;;;;-2.04;44.23;100870.19;3359677;29;20051;-76
2022/01/12 06:16:35;;;;;;;6.32;2.50;;;;;;;-2.03;43.88;100874.50;3350904;29;20489;-76
2022/01/12 06:18:17;;;;;;;3.70;2.42;;;;;;;-2.02;43.77;100878.78;3348629;29;20053;-77
2022/01/12 06:19:58;;;;;;;3.67;2.55;;;;;;;-2.00;43.98;100882.16;3350419;29;20053;-77
2022/01/12 06:21:55;;;;;;;4.93;2.28;;;;;;;-1.97;43.54;100884.59;3350791;29;20060;-76
2022/01/12 06:23:41;;;;;;;4.38;2.33;;;;;;;-2.00;43.61;100879.56;3361598;29;20089;-74
2022/01/12 06:25:22;;;;;;;4.57;2.75;;;;;;;-1.97;43.58;100882.81;3350406;29;20069;-75
2022/01/12 06:27:04;;;;;;;1.95;1.85;;;;;;;-1.96;43.73;100886.31;3348287;29;20049;-76
2022/01/12 06:28:54;;;;;;;;;;;;;;;-1.85;43.56;100894.38;3336239;29;20106;-73
2022/01/12 06:32:35;;;;;;;4.10;2.30;;;;;;;-2.09;43.50;100864.38;3364072;29;20200;-74
2022/01/12 06:34:17;;;;;;;4.55;2.05;;;;;;;-1.95;43.28;100887.97;3351146;29;20530;-75
2022/01/12 06:35:57;;;;;;;3.97;3.00;;;;;;;-1.97;43.23;100892.44;3347738;29;20117;-74
2022/01/12 06:37:38;;;;;;;4.60;2.33;;;;;;;-2.02;43.34;100887.47;3361341;29;20049;-75
2022/01/12 06:39:20;;;;;;;3.90;2.63;;;;;;;-1.99;42.81;100887.31;3349366;29;20045;-77
2022/01/12 06:41:04;;;;;;;4.93;2.47;;;;;;;-2.02;42.82;100878.78;3342658;29;20193;-76
2022/01/12 06:42:45;;;;;;;2.50;2.15;;;;;;;-2.01;42.59;100873.50;3339389;29;20363;-75
2022/01/12 06:44:26;;;;;;;5.95;3.28;;;;;;;-2.04;42.85;100873.69;3341494;29;20046;-77
2022/01/12 06:46:08;;;;;;;;;;;;;;;-1.89;42.50;100877.19;3341687;29;20052;-75
2022/01/12 06:47:50;;;;;;;5.25;3.00;;;;;;;-1.92;42.45;100879.97;3343500;29;19924;-74
2022/01/12 06:49:31;;;;;;;5.07;2.97;;;;;;;-1.91;42.28;100872.97;3355886;29;20044;-74
2022/01/12 06:51:12;;;;;;;4.78;2.60;;;;;;;-1.90;42.38;100878.13;3357898;29;20051;-74
2022/01/12 06:52:53;;;;;;;6.97;3.08;;;;;;;-1.88;42.53;100868.44;3331564;29;20050;-75
2022/01/12 06:54:34;;;;;;;3.13;2.17;;;;;;;-1.84;42.84;100872.53;3358217;29;20048;-75
2022/01/12 06:56:17;;;;;;;3.40;1.98;;;;;;;-1.75;43.41;100873.81;3360255;29;20094;-75
2022/01/12 06:58:04;;;;;;;4.07;2.78;;;;;;;-1.70;43.06;100879.63;3344851;29;20141;-73
2022/01/12 06:59:45;;;;;;;3.90;3.22;;;;;;;-1.69;43.45;100880.47;3354308;29;20558;-73
2022/01/12 07:01:26;;;;;;;4.20;2.72;;;;;;;-1.69;43.07;100883.91;3345066;29;20505;-73
2022/01/12 07:03:07;;;;;;;5.57;2.67;;;;;;;-1.67;42.75;100876.00;3353160;29;20124;-71
2022/01/12 07:04:55;;;;;;;4.93;3.05;;;;;;;-1.68;42.51;100875.13;3330647;29;20111;-73
2022/01/12 07:06:37;;;;;;;2.45;2.20;;;;;;;-1.70;42.42;100873.53;3350977;29;20478;-73
2022/01/12 07:08:18;;;;;;;4.03;2.70;;;;;;;-1.67;42.54;100881.22;3358062;29;20048;-73
2022/01/12 07:10:00;;;;;;;3.75;2.50;;;;;;;-1.66;42.47;100872.44;3347235;29;20049;-74
2022/01/12 07:11:47;;;;;;;4.07;2.15;;;;;;;-1.64;42.27;100866.19;3344807;29;20421;-74
2022/01/12 07:13:36;;;;;;;5.93;2.45;;;;;;;-1.56;42.38;100868.38;3344416;29;20545;-75
2022/01/12 07:15:20;;;;;;;4.32;2.45;;;;;;;-1.50;42.82;100868.03;3335461;29;20045;-72
2022/01/12 07:17:03;;;;;;;2.35;2.15;;;;;;;-1.46;42.90;100866.91;3345044;29;20114;-74
2022/01/12 07:18:44;;;;;;;5.57;2.65;;;;;;;-1.38;42.80;100872.53;3348280;29;20465;-72
2022/01/12 07:20:25;;;;;;;6.45;2.50;;;;;;;-1.36;43.14;100868.06;3337736;29;20073;-72
2022/01/12 07:22:06;;;;;;;4.50;2.70;;;;;;;-1.31;42.81;100878.28;3363432;29;20055;-73
2022/01/12 07:23:48;;;;;;;3.22;1.98;;;;;;;-1.28;43.10;100878.09;3379835;29;20097;-73
2022/01/12 07:25:29;;;;;;;7.47;3.38;;;;;;;-1.32;42.97;100872.22;3379684;29;20025;-73
2022/01/12 07:27:10;;;;;;;3.25;2.28;;;;;;;-1.25;42.89;100882.31;3378403;29;20104;-72
2022/01/12 07:28:51;;;;;;;5.45;2.80;;;;;;;-1.24;42.50;100878.75;3363668;29;20045;-72
2022/01/12 07:30:32;;;;;;;3.20;2.60;;;;;;;-1.24;42.64;100879.63;3363438;29;20478;-72
2022/01/12 07:32:12;;;;;;;4.45;2.30;;;;;;;-1.24;42.49;100879.63;3363626;29;20056;-73
2022/01/12 07:33:56;;;;;;;5.03;2.40;;;;;;;-1.21;41.98;100886.44;3363653;29;20053;-73
2022/01/12 07:35:37;;;;;;;5.32;3.13;;;;;;;-1.23;42.28;100885.69;3349207;29;20470;-73
2022/01/12 07:37:18;;;;;;;4.28;2.38;;;;;;;-1.20;42.03;100888.09;3360736;29;20080;-73
2022/01/12 07:38:59;;;;;;;4.40;3.30;;;;;;;-1.22;41.92;100884.72;3363331;29;20399;-72
2022/01/12 07:40:40;;;;;;;4.43;2.15;;;;;;;-1.19;41.76;100887.16;3362781;29;20090;-72
2022/01/12 07:42:20;;;;;;;6.53;2.28;;;;;;;-1.19;41.66;100892.41;3363365;29;20489;-73
2022/01/12 07:44:03;;;;;;;4.93;3.10;;;;;;;-1.21;41.51;100889.88;3349571;29;20457;-73
2022/01/12 07:45:44;;;;;;;4.28;2.60;;;;;;;-1.22;41.39;100879.50;3360674;29;20037;-73
2022/01/12 07:47:29;;;;;;;10.02;2.97;;;;;;;-1.22;41.60;100882.13;3363239;29;20071;-73
2022/01/12 07:49:09;;;;;;;4.55;3.05;;;;;;;-1.14;41.45;100885.97;3363534;29;20041;-73
2022/01/12 07:50:50;;;;;;;3.13;2.63;;;;;;;-1.05;41.37;100876.75;3362796;29;20051;-74
2022/01/12 07:52:31;;;;;;;6.60;3.22;;;;;;;-0.93;41.21;100873.41;3363754;29;20048;-73
2022/01/12 07:54:11;;;;;;;3.90;2.40;;;;;;;-0.80;40.99;100863.06;3363636;29;20065;-74
2022/01/12 07:55:52;;;;;;;4.72;2.75;;;;;;;-0.43;40.98;100870.44;3364421;29;20049;-74
2022/01/12 07:57:33;;;;;;;4.43;2.80;;;;;;;-0.19;40.96;100861.03;3364919;29;20037;-73
2022/01/12 07:59:14;;;;;;;4.70;2.95;;;;;;;0.12;40.54;100866.94;3350204;29;20120;-74
2022/01/12 08:00:54;;;;;;;4.60;2.38;;;;;;;0.36;40.52;100854.03;3361165;29;20432;-72
2022/01/12 08:02:35;;;;;;;4.25;2.45;;;;;;;0.60;40.29;100854.22;3363987;29;20049;-73
2022/01/12 08:04:16;;;;;;;7.43;3.58;;;;;;;0.83;40.80;100855.31;3349021;29;20532;-73
2022/01/12 08:05:59;;;;;;;6.38;3.60;;;;;;;0.95;40.84;100845.75;3359662;29;20049;-72
2022/01/12 08:07:40;;;;;;;6.90;2.70;;;;;;;1.06;40.23;100843.25;3363519;29;20129;-74
2022/01/12 08:09:21;;;;;;;5.50;3.38;;;;;;;1.03;40.38;100833.81;3363426;29;20048;-72
2022/01/12 08:11:01;;;;;;;5.68;3.55;;;;;;;1.04;40.07;100848.59;3363218;29;20518;-73
2022/01/12 08:12:42;;;;;;;4.20;2.50;;;;;;;0.99;39.86;100840.19;3363086;29;20071;-73
2022/01/12 08:14:23;;;;;;;3.38;3.08;;;;;;;0.94;39.70;100838.84;3363200;29;20041;-73
2022/01/12 08:16:04;;;;;;;5.68;3.15;;;;;;;0.90;39.98;100837.34;3362351;29;20543;-73
2022/01/12 08:17:45;;;;;;;4.68;3.38;;;;;;;0.84;39.73;100839.44;3363481;29;20052;-75
2022/01/12 08:19:27;;;;;;;5.07;2.85;;;;;;;0.81;40.25;100844.91;3363292;29;20128;-74
2022/01/12 08:21:08;;;;;;;3.42;2.20;;;;;;;0.75;40.05;100836.59;3363137;29;20117;-73
2022/01/12 08:22:48;;;;;;;4.28;3.03;;;;;;;0.65;39.50;100837.22;3362416;29;20127;-74
2022/01/12 08:24:29;;;;;;;5.53;3.40;;;;;;;0.60;39.59;100835.84;3349378;29;20483;-75
2022/01/12 08:26:10;;;;;;;6.10;2.88;;;;;;;0.56;39.66;100840.44;3360049;29;20040;-74
2022/01/12 08:27:51;;;;;;;6.25;3.25;;;;;;;0.55;39.71;100837.94;3362902;29;20053;-74
2022/01/12 08:29:32;;;;;;;7.45;3.00;;;;;;;0.57;39.70;100836.06;3362185;29;20120;-75
2022/01/12 08:31:12;;;;;;;2.90;2.55;;;;;;;0.55;39.49;100835.31;3349352;29;20429;-74
2022/01/12 08:32:53;;;;;;;5.78;2.78;;;;;;;0.53;40.04;100830.16;3360405;29;20512;-74
2022/01/12 08:34:34;;;;;;;3.60;2.70;;;;;;;0.54;39.81;100831.88;3363012;29;20033;-72
2022/01/12 08:36:16;;;;;;;3.50;2.78;;;;;;;0.54;39.38;100825.75;3362486;29;20118;-75
2022/01/12 08:37:57;;;;;;;5.38;3.05;;;;;;;0.53;39.60;100835.41;3362664;29;20492;-73
2022/01/12 08:39:38;;;;;;;4.03;2.50;;;;;;;0.57;39.44;100843.94;3362452;29;20055;-74
2022/01/12 08:41:19;;;;;;;3.70;2.90;;;;;;;0.55;39.59;100835.31;3362697;29;20037;-72
2022/01/12 08:42:59;;;;;;;3.45;2.67;;;;;;;0.54;39.52;100837.09;3362948;29;20045;-74
2022/01/12 08:44:41;;;;;;;4.38;2.80;;;;;;;0.51;39.05;100836.44;3363081;29;20045;-73
2022/01/12 08:46:22;;;;;;;6.20;3.35;;;;;;;0.52;39.06;100838.16;3336467;29;20050;-74
2022/01/12 08:48:03;;;;;;;9.75;3.40;;;;;;;0.50;38.99;100840.03;3357690;29;20047;-73
2022/01/12 08:49:44;;;;;;;7.30;2.95;;;;;;;0.50;38.83;100834.78;3362276;29;20674;-74
2022/01/12 08:51:24;;;;;;;6.95;3.30;;;;;;;0.43;38.95;100822.06;3361829;29;20041;-73
2022/01/12 08:53:06;;;;;;;6.22;4.05;;;;;;;0.50;38.84;100829.53;3362745;29;20477;-74
2022/01/12 08:54:46;;;;;;;4.18;3.65;;;;;;;0.50;38.91;100829.53;3362618;29;20045;-73
2022/01/12 08:56:27;;;;;;;4.32;2.90;;;;;;;0.52;38.51;100832.91;3362576;29;20060;-74
2022/01/12 08:58:08;;;;;;;6.90;3.30;;;;;;;0.52;38.88;100830.28;3362548;29;20045;-74
2022/01/12 08:59:49;;;;;;;3.28;2.67;;;;;;;0.50;38.91;100840.03;3348900;29;20049;-74
2022/01/12 09:01:30;;;;;;;6.43;3.28;;;;;;;0.50;38.81;100829.53;3360029;29;20052;-74
2022/01/12 09:03:12;;;;;;;5.13;3.35;;;;;;;0.49;38.55;100827.84;3362913;29;20473;-74
2022/01/12 09:04:52;;;;;;;4.47;3.42;;;;;;;0.50;38.87;100821.66;3361959;29;20512;-74
2022/01/12 09:06:33;;;;;;;6.35;3.70;;;;;;;0.57;38.69;100822.94;3362630;29;20048;-74
2022/01/12 09:08:14;;;;;;;6.13;3.67;;;;;;;0.59;38.61;100821.03;3348847;29;20037;-74
2022/01/12 09:09:54;;;;;;;6.28;3.22;;;;;;;0.57;38.57;100815.91;3345952;29;20038;-74
2022/01/12 09:11:35;;;;;;;8.00;3.38;;;;;;;0.61;38.57;100821.78;3359385;29;20069;-74
2022/01/12 09:13:16;;;;;;;4.55;2.60;;;;;;;0.59;38.48;100815.78;3348820;29;20580;-73
2022/01/12 09:14:57;;;;;;;5.88;2.78;;;;;;;0.60;38.32;100812.25;3359283;29;20401;-74
2022/01/12 09:16:38;;;;;;;5.13;2.63;;;;;;;0.57;38.28;100809.84;3362558;29;20417;-73
2022/01/12 09:18:19;;;;;;;7.50;3.97;;;;;;;0.57;38.25;100810.66;3348843;29;20045;-74
2022/01/12 09:19:59;;;;;;;8.35;4.15;;;;;;;0.57;38.75;100799.34;3359700;29;20084;-74